Time;durP1;ratioP1;P1;durP2;ratioP2;P2;SDS_P1;SDS_P2;PMS_P1;PMS_P2;Temp;Humidity;BMP_temperature;BMP_pressure;BME280_temperature;BME280_humidity;BME280_pressure;Samples;Min_cycle;Max_cycle;Signal;HPM_P1;HPM_P2
2021/09/19 00:02:15;;;;;;;3.05;0.98;;;;;;;;;;21172218;28;20470;-55
2021/09/19 00:12:17;;;;;;;3.60;0.97;;;;;;;;;;21172291;28;20113;-56
2021/09/19 00:22:20;;;;;;;2.13;0.80;;;;;;;;;;21170636;28;20479;-53
2021/09/19 00:32:23;;;;;;;5.18;2.08;;;;;;;;;;21170331;28;20494;-54
2021/09/19 00:42:25;;;;;;;3.53;1.00;;;;;;;;;;21168873;28;20071;-56
2021/09/19 00:52:28;;;;;;;1.58;0.90;;;;;;;;;;21168553;28;20472;-55
2021/09/19 01:02:32;;;;;;;3.03;1.20;;;;;;;;;;21167264;28;20049;-56
2021/09/19 01:12:36;;;;;;;2.30;0.80;;;;;;;;;;21166427;28;20124;-66
2021/09/19 01:22:41;;;;;;;2.92;1.30;;;;;;;;;;21131464;28;20046;-55
2021/09/19 01:32:49;;;;;;;5.70;1.75;;;;;;;;;;21165468;28;20050;-58
2021/09/19 01:42:57;;;;;;;3.72;1.73;;;;;;;;;;21164282;28;20127;-54
2021/09/19 01:53:03;;;;;;;2.80;1.15;;;;;;;;;;21163041;28;20239;-54
2021/09/19 02:03:08;;;;;;;3.75;1.00;;;;;;;;;;21163241;28;20112;-55
2021/09/19 02:13:18;;;;;;;3.13;0.90;;;;;;;;;;21162827;28;20056;-55
2021/09/19 02:23:40;;;;;;;1.60;0.70;;;;;;;;;;21164177;28;20480;-64
2021/09/19 02:34:02;;;;;;;1.40;0.80;;;;;;;;;;21162471;28;20047;-52
2021/09/19 02:44:18;;;;;;;3.72;1.30;;;;;;;;;;21161586;28;20135;-54
2021/09/19 02:54:39;;;;;;;2.17;1.10;;;;;;;;;;21161308;28;20050;-51
2021/09/19 03:05:01;;;;;;;2.30;1.00;;;;;;;;;;21177583;28;20482;-52
2021/09/19 03:15:17;;;;;;;3.08;0.95;;;;;;;;;;21176430;28;20130;-56
2021/09/19 03:25:29;;;;;;;1.40;0.77;;;;;;;;;;21175476;28;20052;-55
2021/09/19 03:35:47;;;;;;;3.55;0.90;;;;;;;;;;21175140;28;20051;-54
2021/09/19 03:45:56;;;;;;;2.10;0.90;;;;;;;;;;21174675;28;20079;-63
2021/09/19 03:56:06;;;;;;;2.88;0.90;;;;;;;;;;21172874;28;20047;-55
2021/09/19 04:06:11;;;;;;;2.75;0.90;;;;;;;;;;21171906;28;20079;-54
2021/09/19 04:16:20;;;;;;;2.08;0.70;;;;;;;;;;21172081;28;20152;-55
2021/09/19 04:26:26;;;;;;;3.00;0.82;;;;;;;;;;21170259;28;20043;-54
2021/09/19 04:36:33;;;;;;;2.60;0.90;;;;;;;;;;21169651;28;20097;-64
2021/09/19 04:46:35;;;;;;;1.63;1.00;;;;;;;;;;21168577;28;20055;-51
2021/09/19 04:56:44;;;;;;;2.67;1.10;;;;;;;;;;21167305;28;20055;-53
2021/09/19 05:06:50;;;;;;;2.58;0.93;;;;;;;;;;21166863;28;20051;-54
2021/09/19 05:16:54;;;;;;;;;;;;;;;;;;21167586;28;20044;-54
2021/09/19 05:26:58;;;;;;;2.45;0.93;;;;;;;;;;21165064;28;19923;-55
2021/09/19 05:37:02;;;;;;;;;;;;;;;;;;21165969;28;20043;-64
2021/09/19 05:47:06;;;;;;;3.55;1.30;;;;;;;;;;21163762;28;19920;-64
2021/09/19 05:57:10;;;;;;;4.63;1.13;;;;;;;;;;21163609;28;20043;-66
2021/09/19 06:07:14;;;;;;;3.47;1.30;;;;;;;;;;21163847;28;20173;-55
2021/09/19 06:17:20;;;;;;;6.72;1.70;;;;;;;;;;21162859;28;20043;-67
2021/09/19 06:27:23;;;;;;;3.90;1.50;;;;;;;;;;21162201;28;20043;-53
2021/09/19 06:37:28;;;;;;;4.40;1.60;;;;;;;;;;21175776;28;20071;-57
2021/09/19 06:47:32;;;;;;;3.60;1.13;;;;;;;;;;21178651;28;20452;-58
2021/09/19 06:57:35;;;;;;;4.97;1.40;;;;;;;;;;21177773;28;20043;-54
2021/09/19 07:07:38;;;;;;;3.60;1.17;;;;;;;;;;21177020;28;20406;-64
2021/09/19 07:17:41;;;;;;;3.28;1.50;;;;;;;;;;21176163;28;20082;-63
2021/09/19 07:27:43;;;;;;;4.28;1.42;;;;;;;;;;21175450;28;20069;-54
2021/09/19 07:37:50;;;;;;;6.38;1.90;;;;;;;;;;21174653;28;20040;-65
2021/09/19 07:47:56;;;;;;;3.03;1.48;;;;;;;;;;21172866;28;20043;-63
2021/09/19 07:58:01;;;;;;;4.55;1.83;;;;;;;;;;21154230;28;20130;-65
2021/09/19 08:08:05;;;;;;;5.07;1.90;;;;;;;;;;21171739;28;20055;-57
2021/09/19 08:18:08;;;;;;;4.07;1.73;;;;;;;;;;21171613;28;20552;-55
2021/09/19 08:28:12;;;;;;;3.35;1.75;;;;;;;;;;21152332;28;20114;-53
2021/09/19 08:38:18;;;;;;;4.80;1.73;;;;;;;;;;21168845;28;20093;-56
2021/09/19 08:48:21;;;;;;;6.10;1.58;;;;;;;;;;21168330;28;20052;-55
2021/09/19 08:58:24;;;;;;;3.30;1.30;;;;;;;;;;21167581;28;20043;-55
2021/09/19 09:08:27;;;;;;;7.60;4.72;;;;;;;;;;21167190;28;20415;-54
2021/09/19 09:18:36;;;;;;;3.35;1.20;;;;;;;;;;21166752;28;20133;-55
2021/09/19 09:28:42;;;;;;;3.83;1.40;;;;;;;;;;21165744;28;20047;-60
2021/09/19 09:38:44;;;;;;;5.65;1.63;;;;;;;;;;21163930;28;20052;-66
2021/09/19 09:48:47;;;;;;;2.53;1.30;;;;;;;;;;21163287;28;20048;-53
2021/09/19 09:58:53;;;;;;;3.67;1.20;;;;;;;;;;21163144;28;20131;-61
2021/09/19 10:08:56;;;;;;;4.07;1.80;;;;;;;;;;21161667;28;20050;-57
2021/09/19 10:19:01;;;;;;;5.88;1.38;;;;;;;;;;21162791;28;20419;-55
2021/09/19 10:29:06;;;;;;;5.07;1.83;;;;;;;;;;21161663;28;20055;-55
2021/09/19 10:39:17;;;;;;;4.00;1.17;;;;;;;;;;21161730;28;20047;-58
2021/09/19 10:49:21;;;;;;;6.55;1.98;;;;;;;;;;21161934;28;20310;-54
2021/09/19 10:59:29;;;;;;;2.40;0.95;;;;;;;;;;21143281;28;20112;-51
2021/09/19 11:09:35;;;;;;;3.75;1.00;;;;;;;;;;21108248;28;20047;-48
2021/09/19 11:19:40;;;;;;;2.42;0.90;;;;;;;;;;21165938;28;20066;-52
2021/09/19 11:29:44;;;;;;;5.57;2.13;;;;;;;;;;21174705;28;20414;-52
2021/09/19 11:39:49;;;;;;;4.18;1.55;;;;;;;;;;21173736;28;20055;-55
2021/09/19 11:49:54;;;;;;;3.33;1.50;;;;;;;;;;21173690;28;20410;-59
2021/09/19 12:00:03;;;;;;;6.30;2.03;;;;;;;;;;21170577;28;20389;-52
2021/09/19 12:10:06;;;;;;;2.85;1.10;;;;;;;;;;21170104;28;20502;-56
2021/09/19 12:20:12;;;;;;;4.85;1.88;;;;;;;;;;21169086;28;20068;-55
2021/09/19 12:30:16;;;;;;;2.90;1.35;;;;;;;;;;21167428;28;20055;-55
2021/09/19 12:40:20;;;;;;;2.08;0.98;;;;;;;;;;21167285;28;20066;-53
2021/09/19 12:50:23;;;;;;;4.68;1.40;;;;;;;;;;21166903;28;20048;-53
2021/09/19 13:00:27;;;;;;;3.33;1.55;;;;;;;;;;21165117;28;20138;-53
2021/09/19 13:10:32;;;;;;;2.20;1.20;;;;;;;;;;21164356;28;20044;-52
2021/09/19 13:20:34;;;;;;;5.50;1.20;;;;;;;;;;21164509;28;20047;-55
2021/09/19 13:30:37;;;;;;;3.03;1.20;;;;;;;;;;21163438;28;20052;-54
2021/09/19 13:40:41;;;;;;;2.83;1.65;;;;;;;;;;21162174;28;20043;-53
2021/09/19 13:50:43;;;;;;;4.63;1.20;;;;;;;;;;21161547;28;20106;-53
2021/09/19 14:00:47;;;;;;;2.55;1.05;;;;;;;;;;21160568;28;20307;-52
2021/09/19 14:10:50;;;;;;;2.72;1.25;;;;;;;;;;21160358;28;20483;-53
2021/09/19 14:20:52;;;;;;;2.83;1.77;;;;;;;;;;21160165;28;20078;-52
2021/09/19 14:30:54;;;;;;;;;;;;;;;;;;21160239;28;20308;-53
2021/09/19 14:40:57;;;;;;;3.33;1.17;;;;;;;;;;21159976;28;19919;-52
2021/09/19 14:51:01;;;;;;;4.03;1.40;;;;;;;;;;21160201;28;20097;-53
2021/09/19 15:01:03;;;;;;;2.50;1.38;;;;;;;;;;21175315;28;20419;-53
2021/09/19 15:11:08;;;;;;;3.15;1.70;;;;;;;;;;21173600;28;20055;-53
2021/09/19 15:21:11;;;;;;;2.50;1.52;;;;;;;;;;21173226;28;20126;-53
2021/09/19 15:31:14;;;;;;;3.15;2.08;;;;;;;;;;21172824;28;20504;-52
2021/09/19 15:41:21;;;;;;;3.50;1.77;;;;;;;;;;21175194;28;20079;-53
2021/09/19 15:51:23;;;;;;;3.30;1.60;;;;;;;;;;21173598;28;20047;-54
2021/09/19 16:01:28;;;;;;;2.25;1.58;;;;;;;;;;21172485;28;20058;-53
2021/09/19 16:11:30;;;;;;;4.38;1.67;;;;;;;;;;21170995;28;20119;-53
2021/09/19 16:21:32;;;;;;;2.75;1.48;;;;;;;;;;21170640;28;20047;-53
2021/09/19 16:31:34;;;;;;;3.05;1.42;;;;;;;;;;21170525;28;20461;-53
2021/09/19 16:41:36;;;;;;;3.60;1.65;;;;;;;;;;21151309;28;20048;-53
2021/09/19 16:51:39;;;;;;;;;;;;;;;;;;21169228;28;20074;-53
2021/09/19 17:01:41;;;;;;;4.57;1.63;;;;;;;;;;21167843;28;19920;-52
2021/09/19 17:11:44;;;;;;;2.40;1.52;;;;;;;;;;21167354;28;20407;-52
2021/09/19 17:21:47;;;;;;;3.72;1.92;;;;;;;;;;21166078;28;20079;-55
2021/09/19 17:31:49;;;;;;;3.28;1.50;;;;;;;;;;21166446;28;20097;-56
2021/09/19 17:41:51;;;;;;;3.20;1.70;;;;;;;;;;21165299;28;20445;-68
2021/09/19 17:51:53;;;;;;;10.83;5.87;;;;;;;;;;21164699;28;20484;-61
2021/09/19 18:01:55;;;;;;;6.27;2.27;;;;;;;;;;21164157;28;20303;-57
2021/09/19 18:11:58;;;;;;;3.53;2.20;;;;;;;;;;21164114;28;20047;-57
2021/09/19 18:22:00;;;;;;;9.17;4.13;;;;;;;;;;21162152;28;20411;-52
2021/09/19 18:32:02;;;;;;;10.33;6.77;;;;;;;;;;21174198;28;20480;-53
2021/09/19 18:42:06;;;;;;;11.30;6.33;;;;;;;;;;21179283;28;20043;-53
2021/09/19 18:52:08;;;;;;;12.43;6.60;;;;;;;;;;21178271;28;20403;-53
2021/09/19 19:02:10;;;;;;;7.77;5.70;;;;;;;;;;21177386;28;20080;-52
2021/09/19 19:12:12;;;;;;;9.87;5.47;;;;;;;;;;21176467;28;20418;-53
2021/09/19 19:22:14;;;;;;;15.23;8.30;;;;;;;;;;21176027;28;20051;-53
2021/09/19 19:32:16;;;;;;;9.30;5.47;;;;;;;;;;21174938;28;20499;-55
2021/09/19 19:42:19;;;;;;;11.50;5.07;;;;;;;;;;21173650;28;20130;-52
2021/09/19 19:52:22;;;;;;;8.90;5.80;;;;;;;;;;21173463;28;20399;-53
2021/09/19 20:02:25;;;;;;;15.00;7.72;;;;;;;;;;21172558;28;20097;-54
2021/09/19 20:12:27;;;;;;;13.90;8.20;;;;;;;;;;21172246;28;20047;-54
2021/09/19 20:22:29;;;;;;;12.20;7.65;;;;;;;;;;21171375;28;20047;-52
2021/09/19 20:32:31;;;;;;;11.40;4.07;;;;;;;;;;21170540;28;20051;-56
2021/09/19 20:42:34;;;;;;;5.10;3.20;;;;;;;;;;21169276;28;20407;-53
2021/09/19 20:52:37;;;;;;;12.80;9.73;;;;;;;;;;21168082;28;20048;-54
2021/09/19 21:02:40;;;;;;;4.97;3.05;;;;;;;;;;21167621;28;20059;-54
2021/09/19 21:12:43;;;;;;;6.10;3.53;;;;;;;;;;21166679;28;20058;-54
2021/09/19 21:22:46;;;;;;;;;;;;;;;;;;21168149;28;20475;-54
2021/09/19 21:32:48;;;;;;;5.72;3.53;;;;;;;;;;21167581;28;20295;-53
2021/09/19 21:42:50;;;;;;;5.15;2.80;;;;;;;;;;21166271;28;20043;-56
2021/09/19 21:52:53;;;;;;;7.20;3.30;;;;;;;;;;21166449;28;20055;-54
2021/09/19 22:02:55;;;;;;;4.50;3.07;;;;;;;;;;21164664;28;20075;-55
2021/09/19 22:13:05;;;;;;;6.20;3.30;;;;;;;;;;21164433;28;20495;-52
2021/09/19 22:23:07;;;;;;;6.40;3.25;;;;;;;;;;21164490;28;20356;-54
2021/09/19 22:33:10;;;;;;;5.10;3.30;;;;;;;;;;21163122;28;20048;-56
2021/09/19 22:43:12;;;;;;;6.25;2.95;;;;;;;;;;21162729;28;20479;-53
2021/09/19 22:53:14;;;;;;;4.75;2.38;;;;;;;;;;21161118;28;20048;-53
2021/09/19 23:03:16;;;;;;;5.53;2.38;;;;;;;;;;21162036;28;20052;-53
2021/09/19 23:13:18;;;;;;;4.50;2.30;;;;;;;;;;21164780;28;20100;-52
2021/09/19 23:23:21;;;;;;;5.43;2.45;;;;;;;;;;21177496;28;20404;-52
2021/09/19 23:33:23;;;;;;;7.30;4.13;;;;;;;;;;21176209;28;20077;-52
2021/09/19 23:43:25;;;;;;;7.55;5.55;;;;;;;;;;21175547;28;20104;-53
2021/09/19 23:53:26;;;;;;;8.00;4.13;;;;;;;;;;21157759;28;20056;-52
